createdAt,value
2019-06-27T00:00:38.738Z,100540.23
2019-06-27T00:03:06.188Z,100544.00
2019-06-27T00:05:33.702Z,100542.33
2019-06-27T00:08:02.182Z,100534.11
2019-06-27T00:10:29.692Z,100545.05
2019-06-27T00:12:57.300Z,100543.96
2019-06-27T00:15:24.773Z,100540.09
2019-06-27T00:17:52.243Z,100546.19
2019-06-27T00:20:21.606Z,100549.91
2019-06-27T00:22:49.261Z,100541.11
2019-06-27T00:25:16.817Z,100549.58
2019-06-27T00:27:44.410Z,100554.66
2019-06-27T00:30:11.936Z,100544.19
2019-06-27T00:32:39.382Z,100553.41
2019-06-27T00:35:06.838Z,100552.43
2019-06-27T00:37:34.301Z,100553.20
2019-06-27T00:40:02.860Z,100546.28
2019-06-27T00:42:30.333Z,100551.17
2019-06-27T00:44:57.831Z,100551.84
2019-06-27T00:47:25.285Z,100550.77
2019-06-27T00:49:52.876Z,100552.62
2019-06-27T00:52:20.467Z,100547.11
2019-06-27T00:54:47.931Z,100558.85
2019-06-27T00:57:15.417Z,100559.63
2019-06-27T00:59:42.960Z,100557.10
2019-06-27T01:02:10.402Z,100553.44
2019-06-27T01:04:37.874Z,100551.63
2019-06-27T01:07:05.309Z,100554.94
2019-06-27T01:09:33.294Z,100550.83
2019-06-27T01:12:00.756Z,100561.45
2019-06-27T01:14:28.248Z,100562.81
2019-06-27T01:16:55.706Z,100552.91
2019-06-27T01:19:23.354Z,100560.29
2019-06-27T01:21:50.846Z,100567.58
2019-06-27T01:24:18.284Z,100559.67
2019-06-27T01:26:45.730Z,100557.62
2019-06-27T01:29:13.230Z,100559.19
2019-06-27T01:31:41.595Z,100558.89
2019-06-27T01:34:09.169Z,100551.41
2019-06-27T01:36:36.631Z,100547.73
2019-06-27T01:39:04.197Z,100552.33
2019-06-27T01:41:31.742Z,100543.78
2019-06-27T01:43:59.224Z,100544.36
2019-06-27T01:46:27.187Z,100536.11
2019-06-27T01:48:54.709Z,100539.77
2019-06-27T01:51:22.198Z,100547.39
2019-06-27T01:53:49.720Z,100545.22
2019-06-27T01:56:17.259Z,100543.33
2019-06-27T01:58:44.771Z,100541.39
2019-06-27T02:01:12.178Z,100540.19
2019-06-27T02:03:39.806Z,100545.77
2019-06-27T02:06:07.258Z,100549.67
2019-06-27T02:08:34.717Z,100547.11
2019-06-27T02:11:02.298Z,100546.05
2019-06-27T02:13:29.806Z,100550.25
2019-06-27T02:15:57.339Z,100548.23
2019-06-27T02:18:25.098Z,100551.16
2019-06-27T02:20:52.566Z,100557.91
2019-06-27T02:23:20.534Z,100559.92
2019-06-27T02:25:48.005Z,100559.69
2019-06-27T02:28:15.478Z,100571.52
2019-06-27T02:30:43.273Z,100573.64
2019-06-27T02:33:10.728Z,100567.24
2019-06-27T02:35:38.253Z,100575.19
2019-06-27T02:38:05.779Z,100575.63
2019-06-27T02:40:33.219Z,100574.48
2019-06-27T02:43:00.820Z,100580.37
2019-06-27T02:45:28.308Z,100573.31
2019-06-27T02:47:55.793Z,100578.91
2019-06-27T02:50:23.418Z,100573.00
2019-06-27T02:52:50.942Z,100576.13
2019-06-27T02:55:18.559Z,100573.89
2019-06-27T02:57:46.412Z,100574.34
2019-06-27T03:00:14.082Z,100574.92
2019-06-27T03:02:41.756Z,100571.22
2019-06-27T03:05:09.623Z,100579.34
2019-06-27T03:07:37.118Z,100572.04
2019-06-27T03:10:06.729Z,100568.41
2019-06-27T03:12:34.253Z,100577.43
2019-06-27T03:15:01.976Z,100576.03
2019-06-27T03:17:29.424Z,100577.92
2019-06-27T03:19:58.603Z,100575.84
2019-06-27T03:22:27.269Z,100579.51
2019-06-27T03:24:56.207Z,100580.56
2019-06-27T03:27:23.780Z,100580.55
2019-06-27T03:29:52.129Z,100588.02
2019-06-27T03:32:20.056Z,100583.89
2019-06-27T03:34:49.082Z,100592.66
2019-06-27T03:37:18.356Z,100586.41
2019-06-27T03:39:46.422Z,100588.59
2019-06-27T03:42:14.396Z,100593.45
2019-06-27T03:44:42.030Z,100588.30
2019-06-27T03:47:10.044Z,100595.23
2019-06-27T03:49:37.760Z,100598.55
2019-06-27T03:52:05.569Z,100591.69
2019-06-27T03:54:34.956Z,100596.58
2019-06-27T03:57:03.537Z,100597.25
2019-06-27T03:59:33.785Z,100598.33
2019-06-27T04:02:02.378Z,100593.92
2019-06-27T04:04:30.790Z,100602.66
2019-06-27T04:07:00.013Z,100594.18
2019-06-27T04:09:28.006Z,100590.05
2019-06-27T04:11:56.450Z,100598.88
2019-06-27T04:14:24.329Z,100603.20
2019-06-27T04:16:52.037Z,100602.89
2019-06-27T04:19:19.823Z,100600.98
2019-06-27T04:21:48.663Z,100602.84
2019-06-27T04:24:16.933Z,100602.62
2019-06-27T04:26:45.598Z,100607.14
2019-06-27T04:29:32.154Z,100607.27
2019-06-27T04:31:42.204Z,100608.53
2019-06-27T04:34:09.917Z,100614.22
2019-06-27T04:36:37.978Z,100617.66
2019-06-27T04:39:05.730Z,100611.45
2019-06-27T04:41:34.924Z,100613.40
2019-06-27T04:44:03.702Z,100617.66
2019-06-27T04:46:32.179Z,100607.01
2019-06-27T04:48:59.932Z,100612.54
2019-06-27T04:51:27.885Z,100615.97
2019-06-27T04:56:32.903Z,100609.20
2019-06-27T04:59:01.422Z,100610.29
2019-06-27T05:01:31.808Z,100611.38
2019-06-27T05:03:59.841Z,100616.72
2019-06-27T05:06:28.281Z,100609.41
2019-06-27T05:08:57.949Z,100612.25
2019-06-27T05:11:26.267Z,100607.94
2019-06-27T05:14:00.263Z,100615.89
2019-06-27T05:16:28.675Z,100618.49
2019-06-27T05:18:57.525Z,100615.63
2019-06-27T05:21:25.699Z,100617.63
2019-06-27T05:23:54.418Z,100618.45
2019-06-27T05:26:22.813Z,100618.84
2019-06-27T05:28:50.971Z,100619.31
2019-06-27T05:31:18.549Z,100619.59
2019-06-27T05:33:47.282Z,100622.76
2019-06-27T05:36:15.772Z,100620.84
2019-06-27T05:38:43.827Z,100622.71
2019-06-27T05:41:11.676Z,100625.27
2019-06-27T05:43:39.535Z,100625.30
2019-06-27T05:46:07.692Z,100624.69
2019-06-27T05:48:35.634Z,100629.63
2019-06-27T05:51:05.376Z,100639.30
2019-06-27T05:53:34.616Z,100629.15
2019-06-27T05:56:03.555Z,100630.84
2019-06-27T05:58:32.669Z,100627.47
2019-06-27T06:01:00.964Z,100631.16
2019-06-27T06:03:28.782Z,100644.08
2019-06-27T06:05:57.960Z,100643.61
2019-06-27T06:08:26.120Z,100642.03
2019-06-27T06:10:56.156Z,100649.70
2019-06-27T06:13:26.314Z,100641.95
2019-06-27T06:15:55.620Z,100639.95
2019-06-27T06:18:23.711Z,100646.33
2019-06-27T06:20:53.101Z,100638.86
2019-06-27T06:23:23.238Z,100646.75
2019-06-27T06:25:53.432Z,100644.69
2019-06-27T06:28:22.445Z,100653.52
2019-06-27T06:30:52.270Z,100649.41
2019-06-27T06:33:23.727Z,100653.20
2019-06-27T06:36:00.474Z,100662.02
2019-06-27T06:38:31.057Z,100663.21
2019-06-27T06:41:01.636Z,100660.87
2019-06-27T06:43:33.837Z,100672.09
2019-06-27T06:46:02.218Z,100669.27
2019-06-27T06:48:31.718Z,100670.77
2019-06-27T06:50:59.205Z,100675.62
2019-06-27T06:53:27.137Z,100671.51
2019-06-27T06:55:54.983Z,100677.36
2019-06-27T06:58:22.895Z,100668.56
2019-06-27T07:01:01.006Z,100672.38
2019-06-27T07:03:19.303Z,100670.00
2019-06-27T07:05:48.759Z,100668.89
2019-06-27T07:08:16.591Z,100669.55
2019-06-27T07:10:45.885Z,100678.80
2019-06-27T07:13:13.522Z,100674.89
2019-06-27T07:15:41.203Z,100675.95
2019-06-27T07:18:09.344Z,100672.05
2019-06-27T07:20:37.183Z,100678.59
2019-06-27T07:23:05.377Z,100669.69
2019-06-27T07:25:33.189Z,100666.95
2019-06-27T07:28:01.095Z,100668.98
2019-06-27T07:30:28.791Z,100665.95
2019-06-27T07:32:57.126Z,100669.27
2019-06-27T07:35:25.081Z,100666.73
2019-06-27T07:37:52.926Z,100667.87
2019-06-27T07:40:20.871Z,100665.16
2019-06-27T07:42:48.801Z,100669.41
2019-06-27T07:45:16.450Z,100668.88
2019-06-27T07:47:44.632Z,100668.28
2019-06-27T07:50:12.478Z,100670.53
2019-06-27T07:52:40.689Z,100675.18
2019-06-27T07:55:08.708Z,100677.64
2019-06-27T07:57:36.979Z,100680.03
2019-06-27T08:00:06.878Z,100672.96
2019-06-27T08:02:35.064Z,100675.38
2019-06-27T08:05:02.799Z,100674.70
2019-06-27T08:07:30.548Z,100676.16
2019-06-27T08:09:59.257Z,100669.67
2019-06-27T08:12:27.135Z,100671.10
2019-06-27T08:14:54.886Z,100669.81
2019-06-27T08:17:22.757Z,100663.21
2019-06-27T08:19:51.063Z,100669.59
2019-06-27T08:22:19.019Z,100664.48
2019-06-27T08:24:46.593Z,100659.21
2019-06-27T08:27:14.587Z,100659.94
2019-06-27T08:29:43.906Z,100660.91
2019-06-27T08:32:11.574Z,100659.66
2019-06-27T08:34:39.502Z,100658.52
2019-06-27T08:37:07.206Z,100660.22
2019-06-27T08:39:35.233Z,100652.80
2019-06-27T08:42:07.962Z,100659.52
2019-06-27T08:44:35.624Z,100660.75
2019-06-27T08:47:03.392Z,100658.33
2019-06-27T08:49:31.075Z,100657.64
2019-06-27T08:52:01.023Z,100650.70
2019-06-27T08:54:28.846Z,100656.11
2019-06-27T08:56:56.600Z,100661.22
2019-06-27T08:59:24.377Z,100656.33
2019-06-27T09:02:07.339Z,100656.33
2019-06-27T09:04:22.218Z,100653.19
2019-06-27T09:06:50.130Z,100657.00
2019-06-27T09:09:18.970Z,100660.23
2019-06-27T09:11:46.616Z,100656.32
2019-06-27T09:14:14.799Z,100654.91
2019-06-27T09:16:46.461Z,100660.98
2019-06-27T09:19:10.420Z,100657.17
2019-06-27T09:21:38.959Z,100656.16
2019-06-27T09:24:06.693Z,100663.06
2019-06-27T09:26:34.446Z,100666.07
2019-06-27T09:29:02.466Z,100665.80
2019-06-27T09:31:30.161Z,100662.72
2019-06-27T09:33:57.782Z,100656.12
2019-06-27T09:36:25.781Z,100665.39
2019-06-27T09:38:54.262Z,100659.14
2019-06-27T09:41:23.685Z,100650.42
2019-06-27T09:43:51.380Z,100664.88
2019-06-27T09:46:19.020Z,100660.03
2019-06-27T09:48:47.156Z,100651.48
2019-06-27T09:51:15.426Z,100659.45
2019-06-27T09:53:47.230Z,100653.30
2019-06-27T09:56:15.332Z,100657.35
2019-06-27T09:58:43.930Z,100652.00
2019-06-27T10:01:11.878Z,100656.23
2019-06-27T10:03:39.922Z,100644.23
2019-06-27T10:06:07.905Z,100653.45
2019-06-27T10:08:36.271Z,100656.25
2019-06-27T10:11:04.037Z,100654.66
2019-06-27T10:13:31.926Z,100654.97
2019-06-27T10:15:59.847Z,100651.40
2019-06-27T10:18:29.175Z,100649.03
2019-06-27T10:20:57.501Z,100639.73
2019-06-27T10:23:25.694Z,100650.84
2019-06-27T10:25:54.021Z,100645.31
2019-06-27T10:28:23.626Z,100652.34
2019-06-27T10:30:52.901Z,100652.72
2019-06-27T10:33:22.050Z,100648.45
2019-06-27T10:35:50.921Z,100642.72
2019-06-27T10:38:18.781Z,100644.41
2019-06-27T10:40:49.773Z,100639.61
2019-06-27T10:43:18.044Z,100642.31
2019-06-27T10:45:45.935Z,100639.34
2019-06-27T10:48:13.785Z,100634.27
2019-06-27T10:50:42.328Z,100627.41
2019-06-27T10:53:10.177Z,100636.17
2019-06-27T10:55:38.604Z,100631.22
2019-06-27T10:58:07.069Z,100631.32
2019-06-27T11:00:34.888Z,100628.75
2019-06-27T11:03:14.802Z,100632.77
2019-06-27T11:05:31.838Z,100624.83
2019-06-27T11:07:59.711Z,100629.75
2019-06-27T11:10:27.671Z,100619.63
2019-06-27T11:12:58.992Z,100618.54
2019-06-27T11:15:28.373Z,100614.83
2019-06-27T11:17:56.487Z,100613.91
2019-06-27T11:20:25.898Z,100617.45
2019-06-27T11:22:54.041Z,100611.78
2019-06-27T11:25:21.822Z,100607.66
2019-06-27T11:27:50.150Z,100608.56
2019-06-27T11:30:20.080Z,100610.31
2019-06-27T11:32:52.294Z,100612.00
2019-06-27T11:35:23.439Z,100602.84
2019-06-27T11:37:58.102Z,100605.79
2019-06-27T11:40:28.121Z,100592.78
2019-06-27T11:42:57.675Z,100602.49
2019-06-27T11:45:27.212Z,100597.75
2019-06-27T11:47:58.199Z,100600.77
2019-06-27T11:50:32.416Z,100599.09
2019-06-27T11:53:01.383Z,100595.41
2019-06-27T11:55:37.022Z,100596.83
2019-06-27T11:58:11.365Z,100596.52
2019-06-27T12:00:39.725Z,100592.19
2019-06-27T12:03:08.060Z,100585.92
2019-06-27T12:05:36.268Z,100584.52
2019-06-27T12:08:05.012Z,100592.63
2019-06-27T12:10:33.654Z,100583.02
2019-06-27T12:13:05.263Z,100591.39
2019-06-27T12:15:35.269Z,100580.03
2019-06-27T12:18:06.609Z,100583.67
2019-06-27T12:20:35.172Z,100587.75
2019-06-27T12:23:03.184Z,100577.21
2019-06-27T12:25:33.880Z,100571.28
2019-06-27T12:28:02.062Z,100566.82
2019-06-27T12:30:29.739Z,100573.52
2019-06-27T12:32:57.988Z,100571.41
2019-06-27T12:35:28.597Z,100566.68
2019-06-27T12:37:57.371Z,100559.22
2019-06-27T12:40:25.303Z,100568.94
2019-06-27T12:42:53.652Z,100568.00
2019-06-27T12:45:22.358Z,100561.22
2019-06-27T12:47:50.455Z,100567.83
2019-06-27T12:50:18.692Z,100562.07
2019-06-27T12:52:46.281Z,100559.55
2019-06-27T12:55:14.177Z,100557.89
2019-06-27T12:57:42.201Z,100552.76
2019-06-27T13:00:12.214Z,100546.56
2019-06-27T13:02:40.400Z,100537.88
2019-06-27T13:05:10.241Z,100538.13
2019-06-27T13:07:41.144Z,100547.25
2019-06-27T13:10:08.973Z,100546.59
2019-06-27T13:12:42.610Z,100546.41
2019-06-27T13:15:13.963Z,100540.91
2019-06-27T13:17:49.043Z,100537.72
2019-06-27T13:22:59.147Z,100534.45
2019-06-27T13:25:27.553Z,100534.89
2019-06-27T13:27:55.265Z,100534.60
2019-06-27T13:30:23.174Z,100530.27
2019-06-27T13:32:51.176Z,100522.33
2019-06-27T13:35:19.629Z,100526.84
2019-06-27T13:37:51.303Z,100522.64
2019-06-27T13:40:19.616Z,100519.34
2019-06-27T13:42:48.264Z,100513.39
2019-06-27T13:45:16.045Z,100519.42
2019-06-27T13:47:46.288Z,100516.47
2019-06-27T13:50:20.023Z,100509.62
2019-06-27T13:52:48.783Z,100506.52
2019-06-27T13:55:16.671Z,100508.94
2019-06-27T13:57:44.530Z,100511.67
2019-06-27T14:00:12.596Z,100508.79
2019-06-27T14:02:41.329Z,100499.58
2019-06-27T14:05:11.878Z,100496.77
2019-06-27T14:07:40.607Z,100495.55
2019-06-27T14:10:09.582Z,100497.70
2019-06-27T14:12:37.862Z,100491.45
2019-06-27T14:15:06.186Z,100493.48
2019-06-27T14:17:35.181Z,100489.80
2019-06-27T14:20:03.105Z,100492.49
2019-06-27T14:22:34.075Z,100496.88
2019-06-27T14:24:59.475Z,100487.55
2019-06-27T14:27:32.935Z,100487.77
2019-06-27T14:30:00.974Z,100495.33
2019-06-27T14:32:30.301Z,100495.86
2019-06-27T14:35:19.448Z,100490.73
2019-06-27T14:37:49.483Z,100490.60
2019-06-27T14:40:18.810Z,100493.98
2019-06-27T14:42:48.086Z,100491.18
2019-06-27T14:45:16.179Z,100490.70
2019-06-27T14:47:44.645Z,100486.80
2019-06-27T14:50:12.544Z,100483.55
2019-06-27T14:52:40.669Z,100480.89
2019-06-27T14:55:08.589Z,100474.55
2019-06-27T14:57:37.142Z,100480.58
2019-06-27T15:00:05.803Z,100475.46
2019-06-27T15:02:33.632Z,100465.14
2019-06-27T15:05:01.818Z,100472.38
2019-06-27T15:07:30.238Z,100470.03
2019-06-27T15:10:00.973Z,100469.31
2019-06-27T15:12:31.173Z,100461.91
2019-06-27T15:14:59.106Z,100463.09
2019-06-27T15:17:27.378Z,100464.16
2019-06-27T15:19:59.293Z,100464.95
2019-06-27T15:22:26.512Z,100469.77
2019-06-27T15:24:54.548Z,100462.73
2019-06-27T15:27:22.442Z,100463.03
2019-06-27T15:29:50.405Z,100466.08
2019-06-27T15:32:18.537Z,100462.32
2019-06-27T15:34:48.212Z,100464.63
2019-06-27T15:37:17.306Z,100452.03
2019-06-27T15:39:45.087Z,100448.88
2019-06-27T15:42:14.135Z,100460.02
2019-06-27T15:44:42.399Z,100451.61
2019-06-27T15:47:10.393Z,100448.88
2019-06-27T15:49:38.809Z,100442.59
2019-06-27T15:52:07.631Z,100449.09
2019-06-27T15:54:39.926Z,100445.53
2019-06-27T15:57:08.388Z,100444.78
2019-06-27T15:59:37.185Z,100442.91
2019-06-27T16:02:07.637Z,100438.30
2019-06-27T16:04:35.698Z,100441.13
2019-06-27T16:07:04.525Z,100446.58
2019-06-27T16:09:34.245Z,100443.34
2019-06-27T16:12:04.479Z,100444.63
2019-06-27T16:14:35.637Z,100439.67
2019-06-27T16:17:03.592Z,100434.02
2019-06-27T16:19:34.979Z,100428.13
2019-06-27T16:22:05.259Z,100424.97
2019-06-27T16:24:33.541Z,100426.55
2019-06-27T16:27:02.080Z,100423.70
2019-06-27T16:29:30.193Z,100423.91
2019-06-27T16:31:59.449Z,100423.71
2019-06-27T16:34:28.939Z,100427.07
2019-06-27T16:36:54.838Z,100418.74
2019-06-27T16:39:22.876Z,100419.06
2019-06-27T16:41:54.782Z,100424.14
2019-06-27T16:44:23.306Z,100433.58
2019-06-27T16:46:51.453Z,100426.02
2019-06-27T16:49:19.633Z,100426.63
2019-06-27T16:51:48.904Z,100427.88
2019-06-27T16:54:16.647Z,100435.46
2019-06-27T16:56:45.909Z,100428.86
2019-06-27T16:59:14.934Z,100432.65
2019-06-27T17:01:44.161Z,100427.37
2019-06-27T17:04:13.036Z,100423.35
2019-06-27T17:06:42.997Z,100421.15
2019-06-27T17:09:10.485Z,100429.44
2019-06-27T17:11:40.057Z,100428.02
2019-06-27T17:14:08.020Z,100426.94
2019-06-27T17:16:38.423Z,100428.15
2019-06-27T17:19:06.561Z,100432.16
2019-06-27T17:21:34.393Z,100432.74
2019-06-27T17:24:02.494Z,100429.73
2019-06-27T17:26:32.367Z,100428.09
2019-06-27T17:29:00.360Z,100425.04
2019-06-27T17:31:28.348Z,100428.06
2019-06-27T17:33:56.065Z,100420.77
2019-06-27T17:36:23.961Z,100423.23
2019-06-27T17:38:52.196Z,100425.14
2019-06-27T17:41:20.054Z,100428.17
2019-06-27T17:43:48.110Z,100425.52
2019-06-27T17:46:19.528Z,100434.91
2019-06-27T17:48:47.870Z,100431.30
2019-06-27T17:51:15.856Z,100426.98
2019-06-27T17:53:45.714Z,100427.19
2019-06-27T17:56:13.372Z,100433.21
2019-06-27T17:58:42.264Z,100430.82
2019-06-27T18:01:10.707Z,100436.53
2019-06-27T18:03:41.201Z,100432.00
2019-06-27T18:06:09.012Z,100435.06
2019-06-27T18:08:38.259Z,100436.48
2019-06-27T18:11:06.641Z,100433.20
2019-06-27T18:13:34.499Z,100437.28
2019-06-27T18:16:04.728Z,100430.69
2019-06-27T18:18:33.177Z,100436.80
2019-06-27T18:21:01.258Z,100433.59
2019-06-27T18:23:30.561Z,100429.45
2019-06-27T18:25:59.093Z,100436.31
2019-06-27T18:28:27.183Z,100438.66
2019-06-27T18:30:56.935Z,100434.07
2019-06-27T18:33:25.141Z,100447.00
2019-06-27T18:35:56.763Z,100429.75
2019-06-27T18:38:26.126Z,100439.55
2019-06-27T18:40:53.679Z,100436.78
2019-06-27T18:43:21.589Z,100431.02
2019-06-27T18:45:49.342Z,100434.01
2019-06-27T18:48:17.002Z,100431.53
2019-06-27T18:50:45.390Z,100428.97
2019-06-27T18:53:12.971Z,100433.09
2019-06-27T18:55:40.989Z,100426.84
2019-06-27T18:58:09.195Z,100432.11
2019-06-27T19:00:38.281Z,100432.24
2019-06-27T19:03:06.530Z,100424.70
2019-06-27T19:05:35.500Z,100428.23
2019-06-27T19:08:03.277Z,100436.66
2019-06-27T19:10:31.688Z,100430.44
2019-06-27T19:12:59.601Z,100436.69
2019-06-27T19:15:28.187Z,100433.27
2019-06-27T19:17:58.281Z,100438.53
2019-06-27T19:20:28.042Z,100443.05
2019-06-27T19:23:04.055Z,100437.10
2019-06-27T19:25:32.187Z,100433.73
2019-06-27T19:28:00.267Z,100436.81
2019-06-27T19:30:29.294Z,100442.84
2019-06-27T19:32:58.050Z,100440.94
2019-06-27T19:35:26.145Z,100445.81
2019-06-27T19:38:02.280Z,100437.98
2019-06-27T19:40:22.637Z,100446.66
2019-06-27T19:42:51.936Z,100451.79
2019-06-27T19:45:19.789Z,100453.97
2019-06-27T19:47:47.684Z,100455.54
2019-06-27T19:50:15.798Z,100454.88
2019-06-27T19:52:44.805Z,100462.66
2019-06-27T19:55:14.017Z,100462.11
2019-06-27T19:57:42.116Z,100465.67
2019-06-27T20:00:10.798Z,100468.55
2019-06-27T20:02:38.605Z,100467.69
2019-06-27T20:05:08.423Z,100468.75
2019-06-27T20:07:36.350Z,100481.09
2019-06-27T20:10:05.649Z,100478.60
2019-06-27T20:12:33.312Z,100476.86
2019-06-27T20:15:02.478Z,100480.72
2019-06-27T20:17:30.551Z,100487.13
2019-06-27T20:19:58.338Z,100487.81
2019-06-27T20:22:25.800Z,100490.17
2019-06-27T20:24:53.279Z,100493.28
2019-06-27T20:27:20.748Z,100493.16
2019-06-27T20:29:48.295Z,100504.02
2019-06-27T20:32:16.186Z,100502.44
2019-06-27T20:34:43.683Z,100506.61
2019-06-27T20:37:11.205Z,100503.59
2019-06-27T20:39:38.725Z,100501.21
2019-06-27T20:42:06.731Z,100502.84
2019-06-27T20:44:34.240Z,100499.88
2019-06-27T20:47:01.680Z,100504.60
2019-06-27T20:49:29.186Z,100500.83
2019-06-27T20:51:56.631Z,100497.77
2019-06-27T20:54:24.159Z,100504.64
2019-06-27T20:56:51.736Z,100514.02
2019-06-27T20:59:19.408Z,100503.38
2019-06-27T21:01:46.856Z,100509.05
2019-06-27T21:04:14.421Z,100500.84
2019-06-27T21:06:42.131Z,100504.30
2019-06-27T21:09:09.595Z,100500.09
2019-06-27T21:11:37.126Z,100507.70
2019-06-27T21:14:04.571Z,100500.44
2019-06-27T21:16:32.056Z,100501.80
2019-06-27T21:18:59.492Z,100504.73
2019-06-27T21:21:26.941Z,100505.34
2019-06-27T21:23:54.499Z,100506.06
2019-06-27T21:26:21.975Z,100504.10
2019-06-27T21:28:49.482Z,100508.10
2019-06-27T21:31:16.908Z,100511.63
2019-06-27T21:33:44.355Z,100509.77
2019-06-27T21:36:11.807Z,100509.06
2019-06-27T21:38:39.547Z,100508.45
2019-06-27T21:41:07.615Z,100514.78
2019-06-27T21:43:38.116Z,100503.38
2019-06-27T21:46:05.639Z,100514.72
2019-06-27T21:48:34.334Z,100502.61
2019-06-27T21:51:03.832Z,100502.37
2019-06-27T21:53:31.378Z,100500.09
2019-06-27T21:55:58.880Z,100507.34
2019-06-27T21:58:26.348Z,100507.77
2019-06-27T22:00:53.789Z,100504.25
2019-06-27T22:03:21.367Z,100499.20
2019-06-27T22:05:49.040Z,100507.50
2019-06-27T22:08:16.490Z,100502.70
2019-06-27T22:10:44.103Z,100505.97
2019-06-27T22:13:11.570Z,100502.61
2019-06-27T22:15:39.585Z,100503.50
2019-06-27T22:18:07.105Z,100503.56
2019-06-27T22:20:34.802Z,100505.23
2019-06-27T22:23:02.949Z,100499.70
2019-06-27T22:25:40.480Z,100503.13
2019-06-27T22:27:57.984Z,100497.17
2019-06-27T22:30:25.440Z,100502.89
2019-06-27T22:32:53.061Z,100502.13
2019-06-27T22:35:20.559Z,100502.11
2019-06-27T22:37:53.551Z,100502.13
2019-06-27T22:40:26.734Z,100500.63
2019-06-27T22:42:59.710Z,100503.45
2019-06-27T22:45:32.878Z,100503.58
2019-06-27T22:48:05.986Z,100498.84
2019-06-27T22:50:34.182Z,100493.32
2019-06-27T22:53:03.075Z,100496.31
2019-06-27T22:55:30.980Z,100497.82
2019-06-27T22:57:58.522Z,100502.77
2019-06-27T23:00:26.188Z,100499.13
2019-06-27T23:02:53.799Z,100502.71
2019-06-27T23:05:22.021Z,100494.03
2019-06-27T23:07:49.581Z,100493.50
2019-06-27T23:10:17.089Z,100496.98
2019-06-27T23:12:44.589Z,100497.33
2019-06-27T23:15:12.566Z,100492.22
2019-06-27T23:17:40.024Z,100488.32
2019-06-27T23:20:07.530Z,100487.41
2019-06-27T23:22:35.000Z,100481.09
2019-06-27T23:25:02.527Z,100483.51
2019-06-27T23:27:31.200Z,100490.45
2019-06-27T23:29:58.967Z,100484.83
2019-06-27T23:32:26.473Z,100487.38
2019-06-27T23:34:53.932Z,100484.77
2019-06-27T23:37:21.439Z,100487.41
2019-06-27T23:39:48.960Z,100492.98
2019-06-27T23:42:16.380Z,100488.41
2019-06-27T23:44:43.939Z,100482.28
2019-06-27T23:47:11.413Z,100482.48
2019-06-27T23:49:38.871Z,100482.39
2019-06-27T23:52:06.328Z,100479.95
2019-06-27T23:54:33.784Z,100475.73
2019-06-27T23:57:01.268Z,100466.84
2019-06-27T23:59:28.711Z,100462.34
